sensor_id;sensor_type;location;lat;lon;timestamp;pressure;altitude;pressure_sealevel;temperature;humidity
65376;BME280;51976;47.332;9.404;2023-03-20T00:01:22;92932.22;;;6.29;76.32
65376;BME280;51976;47.332;9.404;2023-03-20T00:03:49;92932.09;;;6.45;75.91
65376;BME280;51976;47.332;9.404;2023-03-20T00:06:20;92904.28;;;6.52;75.36
65376;BME280;51976;47.332;9.404;2023-03-20T00:08:47;92912.94;;;6.64;75.22
65376;BME280;51976;47.332;9.404;2023-03-20T00:11:30;92930.59;;;6.60;75.91
65376;BME280;51976;47.332;9.404;2023-03-20T00:14:02;92921.66;;;6.81;75.56
65376;BME280;51976;47.332;9.404;2023-03-20T00:16:36;92923.25;;;6.77;75.60
65376;BME280;51976;47.332;9.404;2023-03-20T00:19:03;92933.50;;;6.53;76.20
65376;BME280;51976;47.332;9.404;2023-03-20T00:21:29;92932.66;;;6.48;76.39
65376;BME280;51976;47.332;9.404;2023-03-20T00:23:55;92929.31;;;6.67;75.96
65376;BME280;51976;47.332;9.404;2023-03-20T00:26:25;92931.75;;;6.69;75.67
65376;BME280;51976;47.332;9.404;2023-03-20T00:28:52;92941.63;;;6.36;76.83
65376;BME280;51976;47.332;9.404;2023-03-20T00:31:27;92947.59;;;6.43;76.69
65376;BME280;51976;47.332;9.404;2023-03-20T00:33:57;92945.34;;;6.62;75.83
65376;BME280;51976;47.332;9.404;2023-03-20T00:36:23;92951.25;;;6.64;75.65
65376;BME280;51976;47.332;9.404;2023-03-20T00:38:49;92947.00;;;6.68;75.29
65376;BME280;51976;47.332;9.404;2023-03-20T00:41:21;92950.66;;;6.57;75.49
65376;BME280;51976;47.332;9.404;2023-03-20T00:43:50;92948.16;;;6.45;75.65
65376;BME280;51976;47.332;9.404;2023-03-20T00:46:17;92948.31;;;6.34;76.06
65376;BME280;51976;47.332;9.404;2023-03-20T00:48:42;92950.16;;;6.33;75.91
65376;BME280;51976;47.332;9.404;2023-03-20T00:51:08;92950.38;;;6.54;75.55
65376;BME280;51976;47.332;9.404;2023-03-20T00:53:34;92926.91;;;6.66;75.30
65376;BME280;51976;47.332;9.404;2023-03-20T00:56:00;92943.34;;;6.79;75.07
65376;BME280;51976;47.332;9.404;2023-03-20T00:58:26;92927.03;;;6.86;74.58
65376;BME280;51976;47.332;9.404;2023-03-20T01:00:51;92934.00;;;6.87;74.58
65376;BME280;51976;47.332;9.404;2023-03-20T01:03:19;92930.75;;;6.80;74.73
65376;BME280;51976;47.332;9.404;2023-03-20T01:05:46;92931.31;;;6.82;75.05
65376;BME280;51976;47.332;9.404;2023-03-20T01:08:23;92889.19;;;6.40;75.86
65376;BME280;51976;47.332;9.404;2023-03-20T01:10:52;92926.78;;;6.83;75.65
65376;BME280;51976;47.332;9.404;2023-03-20T01:13:26;92927.84;;;6.87;75.43
65376;BME280;51976;47.332;9.404;2023-03-20T01:15:53;92896.28;;;6.57;75.52
65376;BME280;51976;47.332;9.404;2023-03-20T01:18:20;92929.56;;;6.66;75.85
65376;BME280;51976;47.332;9.404;2023-03-20T01:20:47;92933.06;;;6.34;77.18
65376;BME280;51976;47.332;9.404;2023-03-20T01:23:13;92927.91;;;6.60;76.84
65376;BME280;51976;47.332;9.404;2023-03-20T01:25:39;92918.38;;;6.74;75.91
65376;BME280;51976;47.332;9.404;2023-03-20T01:28:14;92925.47;;;6.58;76.47
65376;BME280;51976;47.332;9.404;2023-03-20T01:30:40;92920.13;;;6.58;76.60
65376;BME280;51976;47.332;9.404;2023-03-20T01:33:14;92909.75;;;6.67;76.42
65376;BME280;51976;47.332;9.404;2023-03-20T01:35:39;92879.13;;;6.53;76.16
65376;BME280;51976;47.332;9.404;2023-03-20T01:38:17;92903.72;;;6.82;75.76
65376;BME280;51976;47.332;9.404;2023-03-20T01:41:07;92913.25;;;6.67;76.12
65376;BME280;51976;47.332;9.404;2023-03-20T01:43:36;92901.47;;;6.68;76.02
65376;BME280;51976;47.332;9.404;2023-03-20T01:46:14;92910.97;;;6.86;75.97
65376;BME280;51976;47.332;9.404;2023-03-20T01:48:59;92914.78;;;6.58;76.25
65376;BME280;51976;47.332;9.404;2023-03-20T01:51:28;92902.38;;;6.47;76.81
65376;BME280;51976;47.332;9.404;2023-03-20T01:54:01;92917.59;;;6.73;76.16
65376;BME280;51976;47.332;9.404;2023-03-20T01:56:31;92910.91;;;6.76;75.95
65376;BME280;51976;47.332;9.404;2023-03-20T01:59:00;92910.69;;;6.83;76.02
65376;BME280;51976;47.332;9.404;2023-03-20T02:01:28;92887.25;;;6.68;75.86
65376;BME280;51976;47.332;9.404;2023-03-20T02:03:54;92901.06;;;6.87;75.54
65376;BME280;51976;47.332;9.404;2023-03-20T02:06:22;92889.25;;;6.88;75.17
65376;BME280;51976;47.332;9.404;2023-03-20T02:08:49;92898.22;;;7.03;74.77
65376;BME280;51976;47.332;9.404;2023-03-20T02:11:18;92907.06;;;7.04;75.12
65376;BME280;51976;47.332;9.404;2023-03-20T02:13:44;92910.56;;;7.04;75.15
65376;BME280;51976;47.332;9.404;2023-03-20T02:16:13;92909.22;;;7.02;75.24
65376;BME280;51976;47.332;9.404;2023-03-20T02:18:41;92910.06;;;7.12;75.27
65376;BME280;51976;47.332;9.404;2023-03-20T02:21:31;92895.53;;;7.03;75.38
65376;BME280;51976;47.332;9.404;2023-03-20T02:24:25;92908.97;;;7.08;75.36
65376;BME280;51976;47.332;9.404;2023-03-20T02:27:17;92908.94;;;7.03;75.16
65376;BME280;51976;47.332;9.404;2023-03-20T02:30:16;92910.56;;;7.04;75.17
65376;BME280;51976;47.332;9.404;2023-03-20T02:36:12;92915.28;;;6.92;75.44
65376;BME280;51976;47.332;9.404;2023-03-20T02:39:01;92911.13;;;7.11;75.00
65376;BME280;51976;47.332;9.404;2023-03-20T02:41:42;92919.16;;;7.06;74.78
65376;BME280;51976;47.332;9.404;2023-03-20T02:44:43;92903.16;;;6.79;75.51
65376;BME280;51976;47.332;9.404;2023-03-20T02:47:14;92918.56;;;6.99;75.34
65376;BME280;51976;47.332;9.404;2023-03-20T02:49:56;92919.16;;;7.06;75.12
65376;BME280;51976;47.332;9.404;2023-03-20T02:52:55;92923.75;;;7.11;75.05
65376;BME280;51976;47.332;9.404;2023-03-20T02:55:46;92925.06;;;7.08;75.22
65376;BME280;51976;47.332;9.404;2023-03-20T02:58:29;92906.16;;;6.51;75.95
65376;BME280;51976;47.332;9.404;2023-03-20T03:01:10;92936.44;;;6.52;76.84
65376;BME280;51976;47.332;9.404;2023-03-20T03:03:43;92929.38;;;6.72;76.20
65376;BME280;51976;47.332;9.404;2023-03-20T03:06:22;92929.09;;;6.74;76.18
65376;BME280;51976;47.332;9.404;2023-03-20T03:08:54;92938.81;;;6.80;76.46
65376;BME280;51976;47.332;9.404;2023-03-20T03:11:22;92942.59;;;6.89;75.92
65376;BME280;51976;47.332;9.404;2023-03-20T03:13:52;92941.38;;;7.02;75.44
65376;BME280;51976;47.332;9.404;2023-03-20T03:16:23;92923.97;;;7.04;75.04
65376;BME280;51976;47.332;9.404;2023-03-20T03:19:02;92939.59;;;7.18;74.95
65376;BME280;51976;47.332;9.404;2023-03-20T03:21:31;92935.72;;;6.98;75.33
65376;BME280;51976;47.332;9.404;2023-03-20T03:23:58;92926.53;;;6.89;75.80
65376;BME280;51976;47.332;9.404;2023-03-20T03:26:27;92921.91;;;6.79;75.81
65376;BME280;51976;47.332;9.404;2023-03-20T03:28:57;92941.03;;;6.93;75.99
65376;BME280;51976;47.332;9.404;2023-03-20T03:31:25;92940.78;;;6.95;75.81
65376;BME280;51976;47.332;9.404;2023-03-20T03:33:54;92925.97;;;6.82;75.62
65376;BME280;51976;47.332;9.404;2023-03-20T03:39:49;92943.50;;;7.00;76.01
65376;BME280;51976;47.332;9.404;2023-03-20T03:42:41;92944.22;;;6.90;75.86
65376;BME280;51976;47.332;9.404;2023-03-20T03:45:13;92953.84;;;6.86;76.44
65376;BME280;51976;47.332;9.404;2023-03-20T03:47:52;92932.28;;;6.71;76.54
65376;BME280;51976;47.332;9.404;2023-03-20T03:50:24;92929.63;;;6.71;76.65
65376;BME280;51976;47.332;9.404;2023-03-20T03:52:51;92957.47;;;6.70;76.90
65376;BME280;51976;47.332;9.404;2023-03-20T03:55:21;92960.66;;;6.67;77.19
65376;BME280;51976;47.332;9.404;2023-03-20T03:58:06;92950.06;;;6.82;76.65
65376;BME280;51976;47.332;9.404;2023-03-20T04:00:34;92962.44;;;6.88;76.14
65376;BME280;51976;47.332;9.404;2023-03-20T04:03:01;92951.84;;;6.71;76.45
65376;BME280;51976;47.332;9.404;2023-03-20T04:05:29;92966.63;;;6.74;76.98
65376;BME280;51976;47.332;9.404;2023-03-20T04:07:58;92952.06;;;6.65;77.19
65376;BME280;51976;47.332;9.404;2023-03-20T04:10:24;92968.94;;;6.65;77.52
65376;BME280;51976;47.332;9.404;2023-03-20T04:12:49;92975.03;;;6.56;77.32
65376;BME280;51976;47.332;9.404;2023-03-20T04:15:16;92974.56;;;6.64;77.05
65376;BME280;51976;47.332;9.404;2023-03-20T04:17:42;92972.03;;;6.84;76.91
65376;BME280;51976;47.332;9.404;2023-03-20T04:20:09;92967.28;;;6.91;76.70
65376;BME280;51976;47.332;9.404;2023-03-20T04:22:34;92964.63;;;6.96;76.60
65376;BME280;51976;47.332;9.404;2023-03-20T04:25:01;92969.44;;;6.94;76.95
65376;BME280;51976;47.332;9.404;2023-03-20T04:27:27;92968.88;;;6.92;77.34
65376;BME280;51976;47.332;9.404;2023-03-20T04:29:53;92971.31;;;6.94;77.39
65376;BME280;51976;47.332;9.404;2023-03-20T04:32:18;92964.63;;;6.96;76.96
65376;BME280;51976;47.332;9.404;2023-03-20T04:34:44;92970.84;;;7.02;76.82
65376;BME280;51976;47.332;9.404;2023-03-20T04:37:09;92959.72;;;6.83;77.10
65376;BME280;51976;47.332;9.404;2023-03-20T04:39:35;92986.59;;;6.93;77.40
65376;BME280;51976;47.332;9.404;2023-03-20T04:42:02;92957.94;;;6.62;77.75
65376;BME280;51976;47.332;9.404;2023-03-20T04:44:27;92989.72;;;6.85;77.42
65376;BME280;51976;47.332;9.404;2023-03-20T04:46:53;92983.69;;;6.68;77.95
65376;BME280;51976;47.332;9.404;2023-03-20T04:49:18;92977.22;;;6.64;77.96
65376;BME280;51976;47.332;9.404;2023-03-20T04:51:43;92994.59;;;6.88;77.46
65376;BME280;51976;47.332;9.404;2023-03-20T04:54:09;92977.63;;;6.77;77.40
65376;BME280;51976;47.332;9.404;2023-03-20T04:56:34;92994.28;;;6.85;77.43
65376;BME280;51976;47.332;9.404;2023-03-20T04:59:00;92980.47;;;6.66;77.76
65376;BME280;51976;47.332;9.404;2023-03-20T05:01:25;92972.97;;;6.68;77.84
65376;BME280;51976;47.332;9.404;2023-03-20T05:03:51;92982.19;;;6.77;77.95
65376;BME280;51976;47.332;9.404;2023-03-20T05:06:16;92991.41;;;6.91;77.49
65376;BME280;51976;47.332;9.404;2023-03-20T05:08:42;92989.53;;;6.92;77.11
65376;BME280;51976;47.332;9.404;2023-03-20T05:11:07;92971.50;;;6.82;76.82
65376;BME280;51976;47.332;9.404;2023-03-20T05:13:32;92998.41;;;6.97;76.90
65376;BME280;51976;47.332;9.404;2023-03-20T05:16:00;93004.88;;;7.01;76.95
65376;BME280;51976;47.332;9.404;2023-03-20T05:18:26;93008.66;;;7.05;76.72
65376;BME280;51976;47.332;9.404;2023-03-20T05:20:51;93015.66;;;7.06;76.69
65376;BME280;51976;47.332;9.404;2023-03-20T05:23:17;93000.50;;;6.90;76.56
65376;BME280;51976;47.332;9.404;2023-03-20T05:25:43;92994.00;;;6.81;77.11
65376;BME280;51976;47.332;9.404;2023-03-20T05:28:08;93014.22;;;6.67;77.58
65376;BME280;51976;47.332;9.404;2023-03-20T05:30:34;93007.88;;;6.73;78.15
65376;BME280;51976;47.332;9.404;2023-03-20T05:32:59;92999.97;;;6.61;78.67
65376;BME280;51976;47.332;9.404;2023-03-20T05:35:25;93011.66;;;6.77;78.19
65376;BME280;51976;47.332;9.404;2023-03-20T05:37:50;93010.09;;;6.86;77.88
65376;BME280;51976;47.332;9.404;2023-03-20T05:40:16;93005.78;;;6.80;78.28
65376;BME280;51976;47.332;9.404;2023-03-20T05:42:43;93006.59;;;6.81;78.31
65376;BME280;51976;47.332;9.404;2023-03-20T05:45:09;93004.47;;;6.83;78.09
65376;BME280;51976;47.332;9.404;2023-03-20T05:47:35;93015.19;;;6.83;78.03
65376;BME280;51976;47.332;9.404;2023-03-20T05:50:01;93008.47;;;6.80;77.90
65376;BME280;51976;47.332;9.404;2023-03-20T05:52:26;93017.59;;;6.84;77.59
65376;BME280;51976;47.332;9.404;2023-03-20T05:54:52;93008.03;;;6.93;77.56
65376;BME280;51976;47.332;9.404;2023-03-20T05:57:17;92995.06;;;6.80;77.35
65376;BME280;51976;47.332;9.404;2023-03-20T05:59:43;92995.38;;;6.89;77.33
65376;BME280;51976;47.332;9.404;2023-03-20T06:02:08;93009.69;;;6.99;77.28
65376;BME280;51976;47.332;9.404;2023-03-20T06:04:34;93002.38;;;6.90;77.02
65376;BME280;51976;47.332;9.404;2023-03-20T06:07:02;93000.25;;;6.92;76.79
65376;BME280;51976;47.332;9.404;2023-03-20T06:09:27;93013.38;;;6.93;76.46
65376;BME280;51976;47.332;9.404;2023-03-20T06:11:52;93018.94;;;6.87;76.95
65376;BME280;51976;47.332;9.404;2023-03-20T06:14:18;93020.00;;;6.86;76.55
65376;BME280;51976;47.332;9.404;2023-03-20T06:16:43;93021.00;;;6.74;76.55
65376;BME280;51976;47.332;9.404;2023-03-20T06:19:09;93027.69;;;6.72;76.69
65376;BME280;51976;47.332;9.404;2023-03-20T06:21:34;93018.38;;;6.79;76.55
65376;BME280;51976;47.332;9.404;2023-03-20T06:23:59;93034.44;;;6.79;76.92
65376;BME280;51976;47.332;9.404;2023-03-20T06:26:25;93038.50;;;6.82;76.40
65376;BME280;51976;47.332;9.404;2023-03-20T06:28:50;93012.41;;;6.72;76.18
65376;BME280;51976;47.332;9.404;2023-03-20T06:31:16;93036.28;;;6.74;76.75
65376;BME280;51976;47.332;9.404;2023-03-20T06:33:41;93042.75;;;6.78;76.36
65376;BME280;51976;47.332;9.404;2023-03-20T06:36:07;93041.94;;;6.77;76.39
65376;BME280;51976;47.332;9.404;2023-03-20T06:38:33;93018.53;;;6.68;76.66
65376;BME280;51976;47.332;9.404;2023-03-20T06:40:58;93047.00;;;6.74;76.87
65376;BME280;51976;47.332;9.404;2023-03-20T06:43:23;93041.75;;;6.89;76.65
65376;BME280;51976;47.332;9.404;2023-03-20T06:45:49;93044.38;;;6.79;77.53
65376;BME280;51976;47.332;9.404;2023-03-20T06:48:15;93041.00;;;6.67;77.33
65376;BME280;51976;47.332;9.404;2023-03-20T06:50:46;93040.63;;;6.80;77.04
65376;BME280;51976;47.332;9.404;2023-03-20T06:53:12;93029.97;;;6.90;76.63
65376;BME280;51976;47.332;9.404;2023-03-20T06:55:37;93033.31;;;7.02;76.49
65376;BME280;51976;47.332;9.404;2023-03-20T06:58:02;93003.88;;;6.75;76.61
65376;BME280;51976;47.332;9.404;2023-03-20T07:00:28;93027.53;;;6.89;76.55
65376;BME280;51976;47.332;9.404;2023-03-20T07:02:56;93027.72;;;6.77;76.70
65376;BME280;51976;47.332;9.404;2023-03-20T07:05:22;93033.22;;;6.92;76.49
65376;BME280;51976;47.332;9.404;2023-03-20T07:07:47;93045.53;;;6.93;76.58
65376;BME280;51976;47.332;9.404;2023-03-20T07:10:13;93046.91;;;6.96;76.66
65376;BME280;51976;47.332;9.404;2023-03-20T07:12:38;93040.94;;;6.89;76.79
65376;BME280;51976;47.332;9.404;2023-03-20T07:15:04;93050.03;;;6.88;76.36
65376;BME280;51976;47.332;9.404;2023-03-20T07:17:30;93037.00;;;6.96;76.12
65376;BME280;51976;47.332;9.404;2023-03-20T07:19:55;93049.91;;;6.99;75.29
65376;BME280;51976;47.332;9.404;2023-03-20T07:22:26;93055.75;;;6.96;75.55
65376;BME280;51976;47.332;9.404;2023-03-20T07:24:51;93011.09;;;6.75;75.47
65376;BME280;51976;47.332;9.404;2023-03-20T07:27:17;93056.66;;;7.07;75.37
65376;BME280;51976;47.332;9.404;2023-03-20T07:29:43;93058.84;;;7.15;75.07
65376;BME280;51976;47.332;9.404;2023-03-20T07:32:09;93035.53;;;7.10;75.14
65376;BME280;51976;47.332;9.404;2023-03-20T07:34:34;93054.94;;;7.28;75.14
65376;BME280;51976;47.332;9.404;2023-03-20T07:37:00;93067.81;;;7.26;75.23
65376;BME280;51976;47.332;9.404;2023-03-20T07:39:25;93065.72;;;7.33;75.24
65376;BME280;51976;47.332;9.404;2023-03-20T07:41:51;93052.88;;;7.35;74.95
65376;BME280;51976;47.332;9.404;2023-03-20T07:44:16;93053.72;;;7.45;74.88
65376;BME280;51976;47.332;9.404;2023-03-20T07:46:43;93061.06;;;7.55;74.82
65376;BME280;51976;47.332;9.404;2023-03-20T07:49:14;93051.31;;;7.44;74.88
65376;BME280;51976;47.332;9.404;2023-03-20T07:51:42;93062.81;;;7.39;74.76
65376;BME280;51976;47.332;9.404;2023-03-20T07:54:08;93064.19;;;7.47;74.71
65376;BME280;51976;47.332;9.404;2023-03-20T07:56:33;93045.88;;;7.34;74.43
65376;BME280;51976;47.332;9.404;2023-03-20T07:58:58;93061.00;;;7.50;74.93
65376;BME280;51976;47.332;9.404;2023-03-20T08:01:24;93062.41;;;7.58;75.09
65376;BME280;51976;47.332;9.404;2023-03-20T08:03:50;93038.22;;;7.53;74.52
65376;BME280;51976;47.332;9.404;2023-03-20T08:06:15;93040.53;;;7.34;74.61
65376;BME280;51976;47.332;9.404;2023-03-20T08:08:40;93051.56;;;7.05;75.71
65376;BME280;51976;47.332;9.404;2023-03-20T08:11:06;93056.66;;;7.07;75.72
65376;BME280;51976;47.332;9.404;2023-03-20T08:13:31;93023.19;;;7.09;75.59
65376;BME280;51976;47.332;9.404;2023-03-20T08:15:57;93051.63;;;7.16;74.52
65376;BME280;51976;47.332;9.404;2023-03-20T08:18:22;93046.44;;;7.41;73.47
65376;BME280;51976;47.332;9.404;2023-03-20T08:20:48;93042.28;;;7.55;72.62
65376;BME280;51976;47.332;9.404;2023-03-20T08:23:15;93041.97;;;7.52;72.14
65376;BME280;51976;47.332;9.404;2023-03-20T08:25:40;93041.34;;;7.39;73.16
65376;BME280;51976;47.332;9.404;2023-03-20T08:28:06;93033.28;;;7.39;72.37
65376;BME280;51976;47.332;9.404;2023-03-20T08:30:32;93037.78;;;7.71;71.93
65376;BME280;51976;47.332;9.404;2023-03-20T08:32:57;93035.56;;;8.05;71.17
65376;BME280;51976;47.332;9.404;2023-03-20T08:35:23;93013.63;;;7.66;70.67
65376;BME280;51976;47.332;9.404;2023-03-20T08:37:48;93045.84;;;7.71;71.41
65376;BME280;51976;47.332;9.404;2023-03-20T08:40:14;93042.34;;;7.70;71.89
65376;BME280;51976;47.332;9.404;2023-03-20T08:42:41;93021.78;;;7.86;71.32
65376;BME280;51976;47.332;9.404;2023-03-20T08:45:07;93032.22;;;7.82;71.05
65376;BME280;51976;47.332;9.404;2023-03-20T08:47:32;93045.72;;;7.93;71.82
65376;BME280;51976;47.332;9.404;2023-03-20T08:49:58;93054.81;;;7.87;71.70
65376;BME280;51976;47.332;9.404;2023-03-20T08:52:23;93026.63;;;7.89;72.01
65376;BME280;51976;47.332;9.404;2023-03-20T08:54:49;93046.53;;;7.98;72.04
65376;BME280;51976;47.332;9.404;2023-03-20T08:57:14;93042.75;;;7.89;72.78
65376;BME280;51976;47.332;9.404;2023-03-20T08:59:40;93056.47;;;7.98;72.85
65376;BME280;51976;47.332;9.404;2023-03-20T09:02:05;93047.25;;;7.78;72.94
65376;BME280;51976;47.332;9.404;2023-03-20T09:04:31;93059.41;;;7.91;72.08
65376;BME280;51976;47.332;9.404;2023-03-20T09:06:56;93047.72;;;7.70;72.88
65376;BME280;51976;47.332;9.404;2023-03-20T09:09:21;93065.94;;;7.68;72.89
65376;BME280;51976;47.332;9.404;2023-03-20T09:11:56;93047.13;;;7.58;71.92
65376;BME280;51976;47.332;9.404;2023-03-20T09:14:23;93066.22;;;7.67;72.22
65376;BME280;51976;47.332;9.404;2023-03-20T09:16:49;93059.63;;;7.85;71.95
65376;BME280;51976;47.332;9.404;2023-03-20T09:19:15;93056.41;;;7.88;72.06
65376;BME280;51976;47.332;9.404;2023-03-20T09:21:41;93041.28;;;7.71;71.33
65376;BME280;51976;47.332;9.404;2023-03-20T09:24:06;93059.66;;;7.95;71.48
65376;BME280;51976;47.332;9.404;2023-03-20T09:26:32;93064.41;;;7.77;71.41
65376;BME280;51976;47.332;9.404;2023-03-20T09:28:57;93052.53;;;7.68;71.18
65376;BME280;51976;47.332;9.404;2023-03-20T09:31:23;93060.13;;;7.81;71.25
65376;BME280;51976;47.332;9.404;2023-03-20T09:33:48;93060.47;;;7.90;71.23
65376;BME280;51976;47.332;9.404;2023-03-20T09:36:14;93058.59;;;7.91;70.57
65376;BME280;51976;47.332;9.404;2023-03-20T09:38:40;93049.44;;;7.87;70.95
65376;BME280;51976;47.332;9.404;2023-03-20T09:41:16;93066.06;;;7.84;71.42
65376;BME280;51976;47.332;9.404;2023-03-20T09:43:53;93063.72;;;8.02;70.96
65376;BME280;51976;47.332;9.404;2023-03-20T09:46:46;93050.81;;;7.99;69.87
65376;BME280;51976;47.332;9.404;2023-03-20T09:52:20;93058.88;;;7.99;70.70
65376;BME280;51976;47.332;9.404;2023-03-20T09:54:51;93033.34;;;7.87;70.30
65376;BME280;51976;47.332;9.404;2023-03-20T09:57:26;93049.91;;;7.78;70.76
65376;BME280;51976;47.332;9.404;2023-03-20T09:59:57;93037.59;;;7.82;69.87
65376;BME280;51976;47.332;9.404;2023-03-20T10:02:46;93052.16;;;7.92;69.62
65376;BME280;51976;47.332;9.404;2023-03-20T10:05:22;93050.84;;;8.04;70.08
65376;BME280;51976;47.332;9.404;2023-03-20T10:07:48;93033.44;;;8.12;69.78
65376;BME280;51976;47.332;9.404;2023-03-20T10:10:15;93037.94;;;7.91;69.48
65376;BME280;51976;47.332;9.404;2023-03-20T10:12:53;93002.25;;;8.01;68.70
65376;BME280;51976;47.332;9.404;2023-03-20T10:15:37;93052.91;;;8.39;67.59
65376;BME280;51976;47.332;9.404;2023-03-20T10:18:25;93012.97;;;7.96;68.66
65376;BME280;51976;47.332;9.404;2023-03-20T10:20:59;93056.03;;;8.16;68.40
65376;BME280;51976;47.332;9.404;2023-03-20T10:23:44;93050.06;;;8.09;68.39
65376;BME280;51976;47.332;9.404;2023-03-20T10:26:14;93032.44;;;8.28;68.04
65376;BME280;51976;47.332;9.404;2023-03-20T10:28:47;93046.38;;;8.20;67.88
65376;BME280;51976;47.332;9.404;2023-03-20T10:37:31;93033.56;;;8.32;67.25
65376;BME280;51976;47.332;9.404;2023-03-20T10:40:29;93045.41;;;8.52;67.26
65376;BME280;51976;47.332;9.404;2023-03-20T10:43:02;93044.97;;;8.75;66.23
65376;BME280;51976;47.332;9.404;2023-03-20T10:45:35;93024.50;;;8.64;65.64
65376;BME280;51976;47.332;9.404;2023-03-20T10:48:08;93043.63;;;8.72;65.23
65376;BME280;51976;47.332;9.404;2023-03-20T10:50:42;93028.81;;;8.65;65.82
65376;BME280;51976;47.332;9.404;2023-03-20T10:53:20;93049.28;;;9.06;65.45
65376;BME280;51976;47.332;9.404;2023-03-20T10:55:48;93029.41;;;9.02;65.02
65376;BME280;51976;47.332;9.404;2023-03-20T10:58:21;93032.31;;;8.80;65.67
65376;BME280;51976;47.332;9.404;2023-03-20T11:00:47;92998.16;;;8.56;64.48
65376;BME280;51976;47.332;9.404;2023-03-20T11:03:22;93028.81;;;8.80;64.38
65376;BME280;51976;47.332;9.404;2023-03-20T11:05:58;93046.31;;;8.72;63.82
65376;BME280;51976;47.332;9.404;2023-03-20T11:08:30;93023.72;;;8.68;64.26
65376;BME280;51976;47.332;9.404;2023-03-20T11:11:00;93024.25;;;8.70;64.15
65376;BME280;51976;47.332;9.404;2023-03-20T11:13:32;93021.28;;;8.77;63.61
65376;BME280;51976;47.332;9.404;2023-03-20T11:16:08;93037.47;;;8.97;63.73
65376;BME280;51976;47.332;9.404;2023-03-20T11:18:35;93039.88;;;9.04;63.55
65376;BME280;51976;47.332;9.404;2023-03-20T11:21:01;93034.22;;;9.31;65.88
65376;BME280;51976;47.332;9.404;2023-03-20T11:23:28;93037.63;;;10.07;62.47
65376;BME280;51976;47.332;9.404;2023-03-20T11:25:59;93028.00;;;9.76;62.12
65376;BME280;51976;47.332;9.404;2023-03-20T11:28:37;93030.47;;;9.37;62.52
65376;BME280;51976;47.332;9.404;2023-03-20T11:31:06;93037.72;;;9.62;63.40
65376;BME280;51976;47.332;9.404;2023-03-20T11:33:50;93035.84;;;9.11;63.35
65376;BME280;51976;47.332;9.404;2023-03-20T11:36:24;93003.31;;;9.23;65.40
65376;BME280;51976;47.332;9.404;2023-03-20T11:38:52;93028.75;;;9.97;62.83
65376;BME280;51976;47.332;9.404;2023-03-20T11:41:22;93029.09;;;9.70;62.21
65376;BME280;51976;47.332;9.404;2023-03-20T11:43:49;92994.16;;;9.34;62.55
65376;BME280;51976;47.332;9.404;2023-03-20T11:46:15;93017.56;;;9.24;62.29
65376;BME280;51976;47.332;9.404;2023-03-20T11:48:42;93021.88;;;9.55;61.59
65376;BME280;51976;47.332;9.404;2023-03-20T11:51:18;93015.63;;;9.75;60.97
65376;BME280;51976;47.332;9.404;2023-03-20T11:53:59;93027.19;;;9.75;61.46
65376;BME280;51976;47.332;9.404;2023-03-20T11:56:28;93017.91;;;10.17;61.57
65376;BME280;51976;47.332;9.404;2023-03-20T11:59:05;93028.81;;;9.66;63.07
65376;BME280;51976;47.332;9.404;2023-03-20T12:01:46;93030.75;;;9.45;62.23
65376;BME280;51976;47.332;9.404;2023-03-20T12:04:30;93027.22;;;9.65;61.57
65376;BME280;51976;47.332;9.404;2023-03-20T12:07:12;93038.78;;;9.66;63.69
65376;BME280;51976;47.332;9.404;2023-03-20T12:09:45;93033.34;;;9.91;61.51
65376;BME280;51976;47.332;9.404;2023-03-20T12:12:35;93036.03;;;9.91;62.90
65376;BME280;51976;47.332;9.404;2023-03-20T12:15:17;93042.53;;;9.75;60.76
65376;BME280;51976;47.332;9.404;2023-03-20T12:18:00;93032.09;;;9.33;61.72
65376;BME280;51976;47.332;9.404;2023-03-20T12:20:37;93034.53;;;9.29;61.48
65376;BME280;51976;47.332;9.404;2023-03-20T12:23:13;93033.16;;;9.16;62.00
65376;BME280;51976;47.332;9.404;2023-03-20T12:25:58;93033.97;;;9.42;61.71
65376;BME280;51976;47.332;9.404;2023-03-20T12:28:32;93022.16;;;9.18;61.58
65376;BME280;51976;47.332;9.404;2023-03-20T12:31:09;93025.09;;;9.37;61.51
65376;BME280;51976;47.332;9.404;2023-03-20T12:34:11;93025.66;;;9.29;61.63
65376;BME280;51976;47.332;9.404;2023-03-20T12:36:43;93017.81;;;9.47;61.51
65376;BME280;51976;47.332;9.404;2023-03-20T12:39:16;93025.09;;;9.52;60.99
65376;BME280;51976;47.332;9.404;2023-03-20T12:42:09;93018.38;;;9.49;60.21
65376;BME280;51976;47.332;9.404;2023-03-20T12:45:00;93018.38;;;9.44;60.62
65376;BME280;51976;47.332;9.404;2023-03-20T12:48:05;93022.13;;;9.33;60.61
65376;BME280;51976;47.332;9.404;2023-03-20T12:50:40;93021.06;;;9.39;60.27
65376;BME280;51976;47.332;9.404;2023-03-20T12:53:40;93023.47;;;9.46;60.27
65376;BME280;51976;47.332;9.404;2023-03-20T12:56:55;93025.06;;;9.62;59.66
65376;BME280;51976;47.332;9.404;2023-03-20T12:59:25;93023.69;;;9.80;59.51
65376;BME280;51976;47.332;9.404;2023-03-20T13:02:29;93024.25;;;9.72;59.82
65376;BME280;51976;47.332;9.404;2023-03-20T13:05:16;93023.16;;;9.83;59.23
65376;BME280;51976;47.332;9.404;2023-03-20T13:11:08;93017.72;;;9.88;59.89
65376;BME280;51976;47.332;9.404;2023-03-20T13:13:54;93015.56;;;9.95;59.73
65376;BME280;51976;47.332;9.404;2023-03-20T13:16:47;93018.31;;;9.80;59.47
65376;BME280;51976;47.332;9.404;2023-03-20T13:19:31;93019.66;;;9.77;59.71
65376;BME280;51976;47.332;9.404;2023-03-20T13:22:31;93017.53;;;9.69;59.22
65376;BME280;51976;47.332;9.404;2023-03-20T13:25:35;93011.06;;;9.75;58.85
65376;BME280;51976;47.332;9.404;2023-03-20T13:28:14;92992.69;;;9.88;58.66
65376;BME280;51976;47.332;9.404;2023-03-20T13:30:54;93008.31;;;9.85;58.78
65376;BME280;51976;47.332;9.404;2023-03-20T13:33:40;93004.31;;;9.73;59.48
65376;BME280;51976;47.332;9.404;2023-03-20T13:36:28;93002.13;;;9.90;59.19
65376;BME280;51976;47.332;9.404;2023-03-20T13:39:05;93001.63;;;9.83;59.75
65376;BME280;51976;47.332;9.404;2023-03-20T13:41:33;93001.84;;;9.92;59.32
65376;BME280;51976;47.332;9.404;2023-03-20T13:44:02;93002.06;;;10.10;59.06
65376;BME280;51976;47.332;9.404;2023-03-20T13:46:40;93009.56;;;10.29;58.64
65376;BME280;51976;47.332;9.404;2023-03-20T13:49:31;93004.34;;;10.42;58.24
65376;BME280;51976;47.332;9.404;2023-03-20T13:52:07;93005.44;;;10.46;58.00